Sonic Adventure (DX): Overall Rankings

Records: Times | Rings | Scores | Races | Bosses | Freestyle
Leaders: Times | Rings | Scores | Races | Bosses | Freestyle | Overall
Rank Player Percent Points Date
1 Sonicspeedruner 98.0% 338 04-23-18
2 Gamepro011 98.0% 347 04-23-18
3 DarkPolarNight 96.7% 564 04-23-18
4 Jawzun 93.2% 1185 04-23-18
5 Dashjump 91.6% 1453 04-23-18
6 DarkspinesSonic 89.8% 1771 04-23-18
7 Avento128bits 89.6% 1806 04-23-18
8 ike6252 89.4% 1840 04-23-18
9 F-Man 87.6% 2156 04-23-18
10 Coolfansonic 87.1% 2242 04-23-18
11 HyperSonic7701 84.3% 2737 04-23-18
12 TheRealShadnic 84.0% 2791 04-23-18
13 yoshifan 82.6% 3033 04-23-18
14 frankoredstrato 82.2% 3101 04-23-18
15 francisco 81.2% 3270 04-23-18
16 Marth 81.0% 3301 04-23-18
17 InferSaime 79.8% 3520 04-23-18
18 PfoSonic 79.3% 3600 04-23-18
19 Paragod 78.9% 3673 04-23-18
20 THC98 78.0% 3827 04-23-18
21 Stefan 75.7% 4243 04-23-18
22 RPGnutter 73.5% 4613 04-23-18
23 bertin 73.4% 4634 04-23-18
24 sonicam 71.3% 5007 04-23-18
25 drminus 70.0% 5236 04-23-18
26 xXMegaManXx 69.9% 5251 04-23-18
27 Dekuboy 67.0% 5761 04-23-18
28 chainchumper 65.8% 5962 04-23-18
29 Combo 65.4% 6038 04-23-18
30 chaos shadow 64.8% 6138 04-23-18
31 SkyLights 64.2% 6235 04-23-18
32 Diamond 62.2% 6595 04-23-18
33 Auriman1 60.1% 6965 04-23-18
34 GerbilSoft 60.0% 6969 04-23-18
35 OmegaDJ 60.0% 6974 04-23-18
36 magnum12 59.2% 7114 04-23-18
37 Thorn 57.0% 7500 04-23-18
38 P1 Pause 56.8% 7527 04-23-18
39 mike89 55.8% 7705 04-23-18
40 Dave Cramer 53.9% 8048 04-23-18
41 Groudon199 53.8% 8053 04-23-18
42 Parax 53.1% 8175 04-23-18
43 Shadow Jacky 52.7% 8251 04-23-18
44 Psymar 47.7% 9115 04-23-18
45 Arch 46.8% 9272 04-23-18
46 Chao_Fan 45.9% 9440 04-23-18
47 mauserman 45.1% 9582 04-23-18
48 Quartz 44.9% 9619 04-23-18
49 teamblackarms 44.0% 9763 04-23-18
50 Calfd 43.4% 9867 04-23-18
51 Psyknux 43.2% 9901 04-23-18
52 James_Bertolli 43.0% 9937 04-23-18
53 NintenDan 42.6% 10012 04-23-18
54 Webber3000 42.1% 10104 04-23-18
55 Turbos 41.9% 10128 04-23-18
56 Ring Rush 41.7% 10170 04-23-18
57 Cream147 41.5% 10203 04-23-18
58 videogamemaster777 41.4% 10223 04-23-18
59 Fr3nZy 41.3% 10240 04-23-18
60 Siavash Tazari 41.2% 10259 04-23-18
61 buddychaos0415 40.6% 10361 04-23-18
62 SadisticMystic 40.1% 10442 04-23-18
63 ethmar 39.7% 10514 04-23-18
64 eggFL 39.3% 10586 04-23-18
65 SB737 37.7% 10863 04-23-18
66 supersonic465 37.3% 10941 04-23-18
67 supersonicfan 36.7% 11051 04-23-18
68 FuzZerd 35.5% 11259 04-23-18
69 Aitamen 35.0% 11343 04-23-18
70 elecmouse101 34.6% 11409 04-23-18
71 BigAL49 34.6% 11410 04-23-18
72 danieldude 34.4% 11438 04-23-18
73 Austinf 33.6% 11585 04-23-18
74 metanightmare22 33.3% 11631 04-23-18
75 Cyan Ryan 33.2% 11653 04-23-18
76 dabestgamer 32.9% 11708 04-23-18
77 MiStEr_ShAoLiN 32.9% 11716 04-23-18
78 Andrea Ritsu 32.1% 11849 04-23-18
79 itsPersonnal 31.7% 11919 04-23-18
80 Cybrax 31.0% 12031 04-23-18
81 JamminX42 30.9% 12057 04-23-18
82 SilvertheAlmighty 30.7% 12087 04-23-18
83 Nim 30.6% 12110 04-23-18
84 VMU Player Banned 29.0% 12395 04-23-18
85 Staf 28.5% 12478 04-23-18
86 Omega Rafael Santos 28.4% 12486 04-23-18
87 The T 28.1% 12551 04-23-18
88 EngiNerd 27.8% 12590 04-23-18
89 lordmetalsonic 27.4% 12675 04-23-18
90 Hipertails12 26.9% 12757 04-23-18
91 welldooder64 26.8% 12770 04-23-18
92 GreatStar 26.6% 12814 04-23-18
93 The Great Lord Mick 26.4% 12838 04-23-18
94 Sondow 26.3% 12853 04-23-18
95 Mastakirby 26.3% 12861 04-23-18
96 LinksDarkArrows 26.1% 12896 04-23-18
97 Skylace 25.2% 13052 04-23-18
98 a_moustache 24.2% 13232 04-23-18
99 Rolken 23.7% 13315 04-23-18
100 Spinballwizard 22.0% 13608 04-23-18
100 Xia 22.0% 13608 04-23-18
102 Kogen Player Banned 22.0% 13612 04-23-18
103 Twilisailor 21.6% 13686 04-23-18
104 f0rever_zer0 21.5% 13702 04-23-18
105 Cutiefox 21.3% 13729 04-23-18
105 Don 21.3% 13729 04-23-18
107 Game_Complete 21.2% 13746 04-23-18
108 Miles9999 21.1% 13765 04-23-18
109 andres430 20.7% 13843 04-23-18
110 Cruizer 20.4% 13882 04-23-18
111 iSonicKid2K 20.3% 13906 04-23-18
112 SADXTryHard 20.1% 13941 04-23-18
113 GarnetPrincess 19.6% 14027 04-23-18
114 N 19.3% 14081 04-23-18
115 AxlThunder 19.0% 14130 04-23-18
116 Niczur 19.0% 14137 04-23-18
117 knuckles_sonic8 18.5% 14222 04-23-18
118 KinkyCadence 18.2% 14272 04-23-18
118 The Knuckles Chao 18.2% 14272 04-23-18
120 Team_Yoshi 17.8% 14337 04-23-18
121 Termon 17.8% 14339 04-23-18
122 LittleBigness 17.8% 14352 04-23-18
123 SonicWinDX 17.6% 14374 04-23-18
124 FoxBoy 17.5% 14391 04-23-18
125 Drakodan 16.9% 14510 04-23-18
126 Sonic Singularity 15.9% 14680 04-23-18
127 Pokemonmaster888 15.6% 14736 04-23-18
128 paulie9990 15.2% 14798 04-23-18
129 SilverSonic 14.6% 14907 04-23-18
130 MPit08 14.4% 14930 04-23-18
131 WeegeeZV 14.2% 14972 04-23-18
132 koinu93 14.1% 14994 04-23-18
133 Mo Player Banned 14.1% 14998 04-23-18
134 HyperSonic64 13.6% 15077 04-23-18
135 Cod4Scopes 13.6% 15078 04-23-18
136 booo95 13.4% 15104 04-23-18
137 Chawkk 13.3% 15122 04-23-18
137 Jerzia 13.3% 15122 04-23-18
139 Hunters13 13.1% 15170 04-23-18
140 SuperSonic101 13.1% 15171 04-23-18
141 Maxinfamily 13.0% 15189 04-23-18
142 Kanimayo_Jp 12.6% 15254 04-23-18
143 LilZero 12.6% 15255 04-23-18
144 BrokenArthritis 12.5% 15277 04-23-18
145 PsyBorg 12.4% 15293 04-23-18
146 Flying Fox 12.3% 15300 04-23-18
147 Therio 12.0% 15354 04-23-18
148 sonicspeed 11.9% 15383 04-23-18
149 douglas 11.8% 15397 04-23-18
150 Matt_TY 11.4% 15461 04-23-18
151 thewaytodawnnn 11.4% 15467 04-23-18
152 ModifiedMonkee 11.2% 15498 04-23-18
153 Cooljay 10.8% 15561 04-23-18
154 SuperBlitzCraig 10.7% 15582 04-23-18
155 joecoolgames 10.6% 15594 04-23-18
156 SeaWolf 10.6% 15598 04-23-18
157 videogamer1014 10.5% 15626 04-23-18
158 AC-Tygo 10.2% 15671 04-23-18
159 welshmoose05 10.2% 15679 04-23-18
160 OddCook 9.9% 15716 04-23-18
161 crazy1993 9.9% 15723 04-23-18
162 TFEC Headshot 9.8% 15738 04-23-18
163 Mcshuggets 9.7% 15762 04-23-18
164 niscool 9.4% 15808 04-23-18
165 Mariobutch 9.3% 15826 04-23-18
166 Irregular Zero 9.3% 15836 04-23-18
166 nuckrieg 9.3% 15836 04-23-18
168 SonicAD 9.2% 15854 04-23-18
169 Shadowthegreat 9.0% 15880 04-23-18
170 superjupi 9.0% 15882 04-23-18
171 SirTobbii 9.0% 15887 04-23-18
172 sonamyfan666 8.7% 15931 04-23-18
173 iarebored 8.6% 15944 04-23-18
174 Powerjohn25 8.6% 15947 04-23-18
175 SaviourDC 8.6% 15953 04-23-18
176 SonicKnuckles 8.6% 15956 04-23-18
177 Werey 8.2% 16017 04-23-18
178 adf 8.2% 16020 04-23-18
179 Megaman EXE565 8.0% 16062 04-23-18
180 ArcticDragon 7.6% 16129 04-23-18
181 Platformer 7.6% 16131 04-23-18
182 timpkmn89 7.5% 16148 04-23-18
183 wheatrich 7.4% 16163 04-23-18
184 Swift Hobo 7.3% 16176 04-23-18
185 FocusSight64 7.3% 16178 04-23-18
186 Rickyman48 7.1% 16212 04-23-18
187 KitsuneYamaro 7.0% 16226 04-23-18
188 Triseena 6.9% 16253 04-23-18
189 Destroyer121121 6.6% 16306 04-23-18
190 dShadow 6.6% 16307 04-23-18
191 Starlight Sable 6.5% 16318 04-23-18
192 CyberShadow 6.5% 16323 04-23-18
193 slade23 6.4% 16327 04-23-18
194 IsisDazs 6.3% 16353 04-23-18
195 BlankTH 6.1% 16387 04-23-18
196 Monkeh 6.1% 16395 04-23-18
197 Redd 6.0% 16413 04-23-18
198 Badlex727 5.9% 16417 04-23-18
199 SonicU260 5.9% 16427 04-23-18
200 Richied 5.8% 16444 04-23-18
201 DaDude 5.7% 16463 04-23-18
201 Swinkly 5.7% 16463 04-23-18
203 Crispian 5.6% 16466 04-23-18
204 Vicklaw 5.6% 16477 04-23-18
205 sonicd5 5.6% 16479 04-23-18
206 Zip 5.6% 16483 04-23-18
207 VeritasDL 5.2% 16544 04-23-18
208 ALundstrom10 5.2% 16548 04-23-18
209 tal39h 5.2% 16553 04-23-18
210 Kirbymon30 5.1% 16570 04-23-18
211 soniccoloursunleashed 5.0% 16584 04-23-18
212 Drflash55 4.9% 16595 04-23-18
213 Bass 4.9% 16603 04-23-18
214 neaolas 4.7% 16625 04-23-18
215 superiorsonic 4.7% 16631 04-23-18
216 zapp 4.7% 16640 04-23-18
217 Yish 4.6% 16643 04-23-18
218 UninspiredUsername 4.6% 16650 04-23-18
219 Sonicsuperstar1 4.5% 16663 04-23-18
220 gamefreak1292 4.5% 16672 04-23-18
221 Sora_yx 4.3% 16701 04-23-18
222 Chaos_Overlord 4.1% 16728 04-23-18
223 TakaRikka 4.0% 16749 04-23-18
224 Valfore 4.0% 16753 04-23-18
225 Dage4Aquatic 3.9% 16775 04-23-18
226 ShinigamiMachine 3.8% 16790 04-23-18
227 Regano1000 3.8% 16797 04-23-18
228 MK 3.7% 16810 04-23-18
229 Ace747 3.6% 16830 04-23-18
230 Jua Rever 3.4% 16853 04-23-18
231 Illidan 3.2% 16902 04-23-18
232 HHNNBBHHN 3.1% 16906 04-23-18
233 Venick409 3.1% 16909 04-23-18
234 Brian_pso 3.1% 16910 04-23-18
235 Sithwarrior26 3.1% 16911 04-23-18
236 nman36 3.1% 16913 04-23-18
237 Egor305 3.0% 16934 04-23-18
237 SkyBon 3.0% 16934 04-23-18
239 ingx24 2.9% 16940 04-23-18
240 TheChaosEmeraIds 2.9% 16945 04-23-18
241 dekki1234 2.9% 16950 04-23-18
242 Nickson98 2.9% 16952 04-23-18
243 Fozer 2.8% 16966 04-23-18
244 Colomb_30 2.8% 16969 04-23-18
244 FSSRandomvids 2.8% 16969 04-23-18
246 Aiko 2.7% 16981 04-23-18
247 sonic29887 2.7% 16985 04-23-18
248 TheUltraBlur 2.6% 16994 04-23-18
249 1stKirbyever 2.6% 16998 04-23-18
250 TimTH 2.5% 17014 04-23-18
251 Th4tN1nj4Turtl3 2.4% 17035 04-23-18
252 Cort_pso 2.3% 17046 04-23-18
253 ieatatsonic 2.3% 17052 04-23-18
254 Mariosonic15 2.2% 17060 04-23-18
255 Doom-9 2.2% 17062 04-23-18
256 Artie 2.2% 17073 04-23-18
257 MStitomix 2.2% 17076 04-23-18
258 HermitHelmet 2.1% 17080 04-23-18
259 Got4n 2.0% 17101 04-23-18
259 SuperSonic71087 2.0% 17101 04-23-18
261 Jose_15 2.0% 17111 04-23-18
262 Questionguy555 1.9% 17114 04-23-18
263 djmat 1.9% 17127 04-23-18
264 SuperSonicfan9595 1.8% 17132 04-23-18
265 sonicandamy Player Banned 1.7% 17149 04-23-18
266 Heroes_Hater 1.7% 17151 04-23-18
267 Paixii 1.7% 17159 04-23-18
268 LancexExWx 1.7% 17160 04-23-18
269 son1cgu1tar 1.7% 17164 04-23-18
270 Mankster101 1.6% 17177 04-23-18
271 BallzeH 1.6% 17178 04-23-18
272 BecauseWarAnvil 1.5% 17184 04-23-18
273 Jamixesa 1.5% 17189 04-23-18
274 SpiritDragon1995 1.5% 17196 04-23-18
275 Shanekilz 1.5% 17199 04-23-18
276 Crydio 1.4% 17200 04-23-18
277 MarewBFN 1.3% 17217 04-23-18
278 stanski 1.3% 17219 04-23-18
279 Sonique Hedgehog 1.3% 17223 04-23-18
280 Blue Infamy 1.2% 17235 04-23-18
281 p0ker 1.2% 17236 04-23-18
282 ArthurVGCP 1.2% 17240 04-23-18
283 ErrortheCucco 1.2% 17246 04-23-18
284 Rikum22 1.2% 17249 04-23-18
285 Arthas 1.1% 17253 04-23-18
286 sonic1001 1.1% 17257 04-23-18
287 syco1098 1.1% 17264 04-23-18
288 WingedInsignia 1.1% 17265 04-23-18
289 AJSIV 1.1% 17266 04-23-18
290 Sonic the Hedgehod16 1.0% 17269 04-23-18
291 ASINISTERTACO 1.0% 17275 04-23-18
292 sonicfan9 1.0% 17281 04-23-18
293 BlackArmsShadow 0.9% 17289 04-23-18
294 themachoman202 0.9% 17290 04-23-18
295 darkstarblaze 0.9% 17294 04-23-18
296 shadowblast63 Player Banned 0.9% 17298 04-23-18
297 Fivavoa 0.9% 17300 04-23-18
298 Greham Adelphis 0.9% 17301 04-23-18
298 MastaToken 0.9% 17301 04-23-18
300 Mr. Jones 0.9% 17302 04-23-18
301 Ben1502 0.8% 17304 04-23-18
302 arcfx1985 0.8% 17305 04-23-18
303 TommyeAsY 0.8% 17307 04-23-18
304 ptorflaxendrosis 0.8% 17308 04-23-18
305 FlandreScarlet9999vr 0.8% 17313 04-23-18
305 Gvozdevik 0.8% 17313 04-23-18
307 Knuckles 0.8% 17314 04-23-18
308 Zeldocto 0.8% 17315 04-23-18
309 BeeAwwb 0.8% 17319 04-23-18
309 KaM Mark MaK 0.8% 17319 04-23-18
311 ShadouZaHejjihoggu 0.7% 17326 04-23-18
312 Sarger001 0.7% 17331 04-23-18
313 Sonic The Star 0.7% 17334 04-23-18
314 darkersupershadic 0.7% 17335 04-23-18
314 dragondragon18 0.7% 17335 04-23-18
314 Sonic62 0.7% 17335 04-23-18
317 Sogeking 0.7% 17338 04-23-18
318 Shadygamerfreak 0.6% 17342 04-23-18
319 Grady219 0.6% 17343 04-23-18
319 SonicK100 0.6% 17343 04-23-18
321 BioShadow 0.6% 17344 04-23-18
322 Jawaah 0.6% 17350 04-23-18
323 Antek 0.6% 17352 04-23-18
324 Klaus 0.6% 17354 04-23-18
324 SilverK 0.6% 17354 04-23-18
326 SpinDashMaster 0.5% 17359 04-23-18
327 Videogamer123 0.5% 17365 04-23-18
328 oTaiIilLsS 0.4% 17379 04-23-18
329 isaihtb11 0.4% 17380 04-23-18
330 zaktu40 0.4% 17382 04-23-18
331 OhNoes! 0.4% 17383 04-23-18
332 gaara1234 0.4% 17385 04-23-18
333 Mad Andy 0.4% 17386 04-23-18
334 S-MS32X-S 0.4% 17387 04-23-18
335 gamed00d 0.4% 17388 04-23-18
336 Mister_Slick 0.3% 17399 04-23-18
337 Rush Hero 0.3% 17402 04-23-18
337 Sonic06Fan 0.3% 17402 04-23-18
339 ChaosNexuss 0.3% 17403 04-23-18
340 SonicMega167 0.3% 17408 04-23-18
341 Iwannabelink 0.2% 17409 04-23-18
342 sonknuck23 0.2% 17413 04-23-18
343 gamer1245 0.2% 17421 04-23-18
344 DanielTheFalcon 0.2% 17423 04-23-18
345 Burningskull123 0.1% 17427 04-23-18
346 Sonicontherun 0.1% 17438 04-23-18
347 Lil_Dude 0.1% 17443 04-23-18
348 antiwwe 0.0% 17444 04-23-18
349 Tyrouble 0.0% 17446 04-23-18
350 Genuine Hedgehog 0.0% 17447 04-23-18
350 SonataSpinDash 0.0% 17447 04-23-18
352 Cbwade15 0.0% 17450 04-23-18
353 MegabombBlade 0.0% 17461 04-23-18
353 neji_hyuuga 0.0% 17461 04-23-18
353 Over 0.0% 17461 04-23-18
353 sdj6707 Player Banned 0.0% 17461 04-23-18
353 Tran Sonic Fan Player Banned 0.0% 17461 04-23-18

This page is using the New Data Table System. [FUTURE]

Game ID: 3 | Category ID: 10
Hits: 72,334 | Hits This Month: 193 | DB Calls: 21 | Mem Usage: 5.48 MB | Time: 0.14s | Printable

The Sonic Center v3.9
Copyright 2003-2011 by The Sonic Center Team.